Providence, Rhode Island
Traffic Map
Current Weather Conditions
Providence, Rhode Island
Few Clouds
Few Clouds

Feels Like: 5°
Wind Chill: Ceiling: Unl
Heat Index: Visibility: 10mi
Dew Point: Wind: 13mph
Humidity: 61% Direction: 360° (N)
Pressure: 30.17in Gusts: 0mph
Raw Report DataKPVD 170351Z 36011KT 10SM FEW030 08/01 A3017 RMK AO2 SLP216 LAST T00780006
Traffic Incident Summary
Active as of:
Severity:
Category:
InformationThere was an issue retrieving the traffic information for this location. Please try a different location or try again shortly.
Advertisements